Time;durP1;ratioP1;P1;durP2;ratioP2;P2;SDS_P1;SDS_P2;PMS_P1;PMS_P2;Temp;Humidity;BMP_temperature;BMP_pressure;BME280_temperature;BME280_humidity;BME280_pressure;Samples;Min_cycle;Max_cycle;Signal;HPM_P1;HPM_P2
2021/08/10 00:02:09;;;;;;;5.68;3.20;;;;;;;19.26;99.78;98277.94;5011066;28;20413;-75
2021/08/10 00:04:35;;;;;;;4.88;3.40;;;;;;;19.25;99.49;98273.56;5011423;28;20125;-74
2021/08/10 00:07:02;;;;;;;6.00;3.25;;;;;;;19.37;98.70;98271.94;5009829;28;20127;-74
2021/08/10 00:09:27;;;;;;;3.88;3.35;;;;;;;19.38;98.76;98271.63;5011505;28;20041;-75
2021/08/10 00:11:56;;;;;;;5.75;3.33;;;;;;;19.62;97.30;98279.97;5011375;28;20030;-74
2021/08/10 00:14:22;;;;;;;6.70;3.00;;;;;;;19.59;97.28;98274.31;5009619;28;20030;-74
2021/08/10 00:16:47;;;;;;;3.88;3.08;;;;;;;19.40;97.99;98277.66;5009596;28;20037;-74
2021/08/10 00:19:12;;;;;;;4.88;3.17;;;;;;;19.44;97.86;98273.03;5009614;28;20040;-74
2021/08/10 00:21:38;;;;;;;5.35;3.13;;;;;;;19.48;97.67;98278.72;5009195;28;20058;-74
2021/08/10 00:24:04;;;;;;;4.15;3.10;;;;;;;19.40;98.05;98272.09;5011015;28;20411;-74
2021/08/10 00:26:30;;;;;;;8.38;5.38;;;;;;;19.43;98.28;98270.59;5009292;28;20038;-74
2021/08/10 00:28:55;;;;;;;3.85;3.08;;;;;;;19.52;97.60;98274.06;5009651;28;20464;-74
2021/08/10 00:31:21;;;;;;;4.53;3.05;;;;;;;19.49;97.72;98281.13;5009570;28;20088;-75
2021/08/10 00:33:46;;;;;;;5.13;2.95;;;;;;;19.38;98.06;98284.66;5011198;28;20030;-75
2021/08/10 00:36:12;;;;;;;4.97;3.55;;;;;;;19.24;99.34;98274.69;5008953;28;20072;-75
2021/08/10 00:38:38;;;;;;;4.95;3.65;;;;;;;19.40;98.27;98283.19;5009928;28;20030;-75
2021/08/10 00:41:04;;;;;;;6.90;3.45;;;;;;;19.39;98.45;98284.31;5007956;28;20487;-75
2021/08/10 00:43:37;;;;;;;5.18;3.60;;;;;;;19.49;97.96;98283.09;5008201;28;20033;-75
2021/08/10 00:46:06;;;;;;;4.93;3.45;;;;;;;19.53;97.28;98272.91;5008609;28;20026;-74
2021/08/10 00:48:32;;;;;;;10.85;3.30;;;;;;;19.45;97.60;98288.50;5010278;28;20030;-75
2021/08/10 00:50:58;;;;;;;6.07;3.80;;;;;;;19.27;99.32;98281.53;5009887;28;20034;-75
2021/08/10 00:53:24;;;;;;;6.20;3.40;;;;;;;19.19;99.54;98285.22;5009566;28;20088;-75
2021/08/10 00:55:49;;;;;;;4.03;3.22;;;;;;;19.02;100.00;98291.75;5009550;28;20054;-75
2021/08/10 00:58:15;;;;;;;3.42;3.13;;;;;;;18.94;100.00;98277.97;5007431;28;20387;-75
2021/08/10 01:00:41;;;;;;;4.45;3.53;;;;;;;18.78;100.00;98288.91;5008609;28;20117;-76
2021/08/10 01:03:07;;;;;;;3.83;2.70;;;;;;;18.79;100.00;98290.53;5012330;28;20080;-77
2021/08/10 01:05:32;;;;;;;3.53;2.78;;;;;;;18.74;100.00;98287.94;5014360;28;20084;-74
2021/08/10 01:08:09;;;;;;;2.65;2.35;;;;;;;19.00;100.00;98285.75;5014226;28;20040;-77
2021/08/10 01:11:09;;;;;;;4.18;3.20;;;;;;;18.90;100.00;98286.16;5014300;28;20033;-77
2021/08/10 01:14:04;;;;;;;4.93;3.47;;;;;;;18.79;100.00;98281.41;5011769;28;20406;-74
2021/08/10 01:16:29;;;;;;;4.65;3.28;;;;;;;19.03;100.00;98293.38;5003924;28;20133;-77
2021/08/10 01:19:26;;;;;;;5.78;3.55;;;;;;;19.01;100.00;98290.16;5013847;28;20169;-75
2021/08/10 01:21:55;;;;;;;6.85;3.25;;;;;;;18.96;100.00;98292.31;5011899;28;20026;-75
2021/08/10 01:24:29;;;;;;;5.15;3.38;;;;;;;18.68;100.00;98289.31;5012897;28;20017;-75
2021/08/10 01:27:26;;;;;;;7.45;3.15;;;;;;;18.59;100.00;98291.34;5012009;28;20026;-75
2021/08/10 01:29:57;;;;;;;6.10;3.15;;;;;;;18.62;100.00;98285.13;5014171;28;20029;-75
2021/08/10 01:32:23;;;;;;;7.07;4.70;;;;;;;18.62;100.00;98285.94;5011847;28;20053;-75
2021/08/10 01:34:49;;;;;;;11.13;4.60;;;;;;;18.45;100.00;98274.19;5011834;28;20053;-75
2021/08/10 01:37:22;;;;;;;10.88;4.35;;;;;;;18.36;100.00;98295.56;5013547;28;20128;-75
2021/08/10 01:39:51;;;;;;;10.65;5.13;;;;;;;18.31;100.00;98302.16;5013513;28;20062;-74
2021/08/10 01:42:18;;;;;;;7.45;4.40;;;;;;;18.48;100.00;98304.75;5012289;28;20789;-74
2021/08/10 01:44:44;;;;;;;8.70;4.30;;;;;;;18.59;100.00;98308.78;5012344;28;20113;-76
2021/08/10 01:47:11;;;;;;;20.00;5.15;;;;;;;18.64;100.00;98305.00;5013605;28;20120;-74
2021/08/10 01:49:38;;;;;;;6.72;3.70;;;;;;;18.80;100.00;98305.19;5012493;28;20030;-74
2021/08/10 01:52:06;;;;;;;12.52;4.13;;;;;;;18.94;100.00;98300.97;5011115;28;20084;-75
2021/08/10 01:54:32;;;;;;;8.57;3.47;;;;;;;18.92;100.00;98300.50;5013337;28;20121;-76
2021/08/10 01:57:00;;;;;;;5.25;4.20;;;;;;;18.94;100.00;98308.47;5011532;28;20120;-76
2021/08/10 01:59:27;;;;;;;9.48;5.65;;;;;;;18.87;100.00;98297.94;5012446;28;20470;-76
2021/08/10 02:01:53;;;;;;;10.25;5.03;;;;;;;18.82;100.00;98300.94;5012087;28;20546;-75
2021/08/10 02:04:20;;;;;;;6.05;3.95;;;;;;;18.54;100.00;98297.13;5011637;28;20504;-76
2021/08/10 02:06:49;;;;;;;6.97;4.55;;;;;;;18.32;100.00;98297.41;5012380;28;20032;-75
2021/08/10 02:09:18;;;;;;;6.38;3.63;;;;;;;18.17;100.00;98301.56;5012295;28;20022;-74
2021/08/10 02:11:44;;;;;;;6.45;5.13;;;;;;;18.03;100.00;98301.03;5011898;28;20045;-75
2021/08/10 02:14:11;;;;;;;10.05;3.72;;;;;;;18.02;100.00;98291.91;5015804;28;20029;-74
2021/08/10 02:16:38;;;;;;;4.05;3.50;;;;;;;17.96;100.00;98296.03;5014986;28;20517;-73
2021/08/10 02:19:03;;;;;;;5.45;3.92;;;;;;;18.05;100.00;98290.44;5013799;28;20025;-75
2021/08/10 02:21:43;;;;;;;9.90;3.90;;;;;;;18.18;100.00;98297.66;5011861;28;20022;-75
2021/08/10 02:24:16;;;;;;;4.82;3.30;;;;;;;18.16;100.00;98295.25;5013027;28;20029;-74
2021/08/10 02:26:49;;;;;;;4.55;3.35;;;;;;;18.26;100.00;98296.81;5012917;28;20087;-74
2021/08/10 02:29:17;;;;;;;3.63;3.30;;;;;;;18.27;100.00;98294.84;5011449;28;20034;-76
2021/08/10 02:31:45;;;;;;;4.75;3.80;;;;;;;18.16;100.00;98295.25;5012855;28;20026;-75
2021/08/10 02:34:13;;;;;;;6.03;4.25;;;;;;;18.38;100.00;98302.44;5012960;28;20041;-76
2021/08/10 02:36:38;;;;;;;4.60;3.28;;;;;;;18.77;100.00;98294.78;5011275;28;20030;-75
2021/08/10 02:39:06;;;;;;;4.40;3.42;;;;;;;18.81;100.00;98302.06;5012183;28;20041;-75
2021/08/10 02:41:34;;;;;;;4.97;3.83;;;;;;;18.46;100.00;98293.22;5012308;28;20388;-75
2021/08/10 02:44:01;;;;;;;5.05;3.63;;;;;;;18.22;100.00;98292.28;5010964;28;20042;-75
2021/08/10 02:46:26;;;;;;;4.75;3.13;;;;;;;18.52;100.00;98297.44;5012617;28;20096;-74
2021/08/10 02:48:52;;;;;;;8.27;3.67;;;;;;;18.50;100.00;98302.53;5010698;28;20066;-75
2021/08/10 02:51:17;;;;;;;6.70;3.47;;;;;;;18.51;100.00;98303.34;5011915;28;20041;-74
2021/08/10 02:53:43;;;;;;;5.22;3.53;;;;;;;18.53;100.00;98303.78;5010313;28;20011;-75
2021/08/10 02:56:21;;;;;;;9.40;3.80;;;;;;;18.48;100.00;98302.00;5010093;28;20499;-74
2021/08/10 02:58:57;;;;;;;5.60;3.72;;;;;;;18.26;100.00;98302.34;5010378;28;20772;-75
2021/08/10 03:01:29;;;;;;;5.40;3.30;;;;;;;17.97;100.00;98313.44;5009914;28;20474;-74
2021/08/10 03:03:56;;;;;;;4.05;3.22;;;;;;;17.93;100.00;98309.72;5010065;28;20498;-75
2021/08/10 03:06:22;;;;;;;5.97;3.13;;;;;;;18.15;100.00;98315.78;5011157;28;20524;-76
2021/08/10 03:08:54;;;;;;;10.93;3.65;;;;;;;18.27;100.00;98317.00;5011626;28;20037;-74
2021/08/10 03:11:21;;;;;;;4.45;2.70;;;;;;;18.15;100.00;98310.25;5009866;28;20018;-75
2021/08/10 03:13:48;;;;;;;4.47;3.33;;;;;;;18.03;100.00;98312.09;5009842;28;20033;-74
2021/08/10 03:16:15;;;;;;;6.55;3.38;;;;;;;18.00;100.00;98310.00;5011102;28;20496;-74
2021/08/10 03:18:46;;;;;;;7.45;4.13;;;;;;;17.85;100.00;98307.81;5008964;28;20146;-75
2021/08/10 03:21:11;;;;;;;4.63;2.92;;;;;;;17.91;100.00;98309.25;5011223;28;20445;-75
2021/08/10 03:23:40;;;;;;;6.15;4.38;;;;;;;17.83;100.00;98313.69;5011474;28;20083;-75
2021/08/10 03:26:08;;;;;;;4.40;3.10;;;;;;;17.91;100.00;98315.59;5009206;28;20037;-75
2021/08/10 03:28:39;;;;;;;3.45;3.15;;;;;;;17.93;100.00;98321.59;5009621;28;20053;-75
2021/08/10 03:31:04;;;;;;;4.72;3.58;;;;;;;17.83;100.00;98313.69;5010418;28;20033;-77
2021/08/10 03:33:30;;;;;;;4.95;2.97;;;;;;;17.59;100.00;98307.94;5009133;28;20068;-76
2021/08/10 03:35:57;;;;;;;10.13;4.25;;;;;;;17.52;100.00;98318.69;5010273;28;20053;-75
2021/08/10 03:38:24;;;;;;;4.45;3.35;;;;;;;17.60;100.00;98312.34;5010279;28;20044;-75
2021/08/10 03:40:51;;;;;;;5.32;3.72;;;;;;;17.63;100.00;98314.44;5011094;28;20030;-75
2021/08/10 03:43:16;;;;;;;6.43;3.63;;;;;;;17.71;100.00;98327.41;5010416;28;20042;-75
2021/08/10 03:45:43;;;;;;;8.82;3.47;;;;;;;17.65;100.00;98326.81;5009663;28;20022;-76
2021/08/10 03:48:10;;;;;;;5.18;3.53;;;;;;;17.67;100.00;98321.72;5010016;28;20041;-75
2021/08/10 03:50:36;;;;;;;4.38;3.58;;;;;;;17.70;100.00;98327.78;5009892;28;20026;-75
2021/08/10 03:53:03;;;;;;;4.65;3.95;;;;;;;17.70;100.00;98331.31;5011103;28;20124;-75
2021/08/10 03:55:29;;;;;;;7.22;3.85;;;;;;;17.73;100.00;98335.41;5003069;28;20448;-75
2021/08/10 03:57:57;;;;;;;5.65;3.35;;;;;;;17.77;100.00;98336.34;5004770;28;20045;-74
2021/08/10 04:00:24;;;;;;;9.70;4.43;;;;;;;17.93;100.00;98329.91;4990200;28;20120;-75
2021/08/10 04:02:51;;;;;;;5.50;3.78;;;;;;;17.85;100.00;98339.09;5008134;28;20125;-75
2021/08/10 04:05:17;;;;;;;9.30;4.40;;;;;;;17.91;100.00;98343.28;5009983;28;20421;-75
2021/08/10 04:07:43;;;;;;;10.13;3.90;;;;;;;17.94;100.00;98345.38;5010535;28;20494;-75
2021/08/10 04:10:10;;;;;;;5.15;3.63;;;;;;;18.20;100.00;98351.56;5010586;28;20109;-77
2021/08/10 04:12:36;;;;;;;7.45;3.80;;;;;;;18.08;100.00;98343.19;5008807;28;20584;-75
2021/08/10 04:15:03;;;;;;;9.70;4.50;;;;;;;18.18;100.00;98342.78;4988642;28;20553;-75
2021/08/10 04:17:30;;;;;;;5.00;4.15;;;;;;;18.09;100.00;98352.31;4990233;28;20058;-75
2021/08/10 04:19:56;;;;;;;4.75;4.00;;;;;;;17.87;100.00;98347.03;5006334;28;20026;-75
2021/08/10 04:22:22;;;;;;;9.13;5.03;;;;;;;17.98;100.00;98354.63;4990325;28;20109;-75
2021/08/10 04:24:48;;;;;;;4.07;3.40;;;;;;;18.13;100.00;98354.06;4990172;28;20128;-76
2021/08/10 04:27:15;;;;;;;5.25;3.97;;;;;;;18.16;100.00;98345.09;4989879;28;20066;-75
2021/08/10 04:29:40;;;;;;;12.55;4.05;;;;;;;18.14;100.00;98355.69;5007053;28;20042;-76
2021/08/10 04:32:07;;;;;;;5.43;3.72;;;;;;;18.40;100.00;98349.16;4994231;28;20030;-76
2021/08/10 04:34:33;;;;;;;4.57;3.72;;;;;;;18.47;100.00;98358.56;4992083;28;20073;-75
2021/08/10 04:36:58;;;;;;;8.65;3.35;;;;;;;18.33;100.00;98358.00;4989278;28;20042;-75
2021/08/10 04:39:26;;;;;;;8.20;4.38;;;;;;;18.33;100.00;98355.22;4991002;28;20032;-74
2021/08/10 04:41:52;;;;;;;4.32;3.53;;;;;;;18.44;100.00;98358.44;4989353;28;20054;-75
2021/08/10 04:44:18;;;;;;;7.15;3.75;;;;;;;18.36;100.00;98360.09;4989574;28;20026;-75
2021/08/10 04:46:43;;;;;;;11.10;3.50;;;;;;;18.36;100.00;98360.09;4989399;28;20022;-75
2021/08/10 04:49:08;;;;;;;10.18;3.50;;;;;;;18.43;100.00;98365.94;4990214;28;20022;-75
2021/08/10 04:51:34;;;;;;;4.53;4.10;;;;;;;18.71;100.00;98380.09;5010678;28;20026;-78
2021/08/10 04:54:00;;;;;;;8.57;3.53;;;;;;;18.94;98.71;98381.38;5008509;28;20029;-75
2021/08/10 04:56:25;;;;;;;5.88;3.60;;;;;;;19.05;98.61;98382.56;4996370;28;20084;-80
2021/08/10 04:58:50;;;;;;;8.35;3.35;;;;;;;19.21;96.95;98380.81;5008880;28;20036;-77
2021/08/10 05:01:16;;;;;;;7.43;3.42;;;;;;;19.19;96.99;98383.13;5003054;28;20117;-79
2021/08/10 05:03:41;;;;;;;6.25;3.60;;;;;;;19.27;96.00;98379.44;4990990;28;20114;-78
2021/08/10 05:06:07;;;;;;;5.68;3.10;;;;;;;19.51;94.56;98375.16;4989829;28;20037;-76
2021/08/10 05:08:32;;;;;;;7.28;4.82;;;;;;;19.40;96.05;98379.50;4990525;28;20031;-79
2021/08/10 05:10:58;;;;;;;4.88;4.05;;;;;;;19.54;95.49;98386.38;4990234;28;20041;-74
2021/08/10 05:13:24;;;;;;;6.25;4.05;;;;;;;19.44;96.19;98383.22;4994948;28;20035;-74
2021/08/10 05:15:49;;;;;;;7.53;4.95;;;;;;;19.21;97.37;98378.03;5009753;28;20033;-79
2021/08/10 05:18:15;;;;;;;7.75;4.13;;;;;;;19.47;96.18;98376.97;5008177;28;20499;-74
2021/08/10 05:20:40;;;;;;;8.38;3.65;;;;;;;19.60;94.97;98375.88;5009045;28;20847;-74
2021/08/10 05:23:05;;;;;;;5.55;4.25;;;;;;;19.46;95.31;98381.72;5008903;28;20025;-73
2021/08/10 05:25:31;;;;;;;5.13;4.18;;;;;;;19.52;95.26;98383.13;5008565;28;20471;-74
2021/08/10 05:27:56;;;;;;;7.20;3.97;;;;;;;19.43;95.77;98378.81;5007585;28;20052;-76
2021/08/10 05:30:22;;;;;;;14.27;5.13;;;;;;;19.82;93.61;98377.41;5008280;28;20088;-76
2021/08/10 05:32:47;;;;;;;6.93;3.88;;;;;;;19.83;93.32;98379.81;5008590;28;20034;-76
2021/08/10 05:35:12;;;;;;;11.02;4.13;;;;;;;20.01;91.72;98384.03;5008838;28;20437;-76
2021/08/10 05:37:38;;;;;;;7.05;4.72;;;;;;;20.02;91.56;98380.06;5009744;28;20540;-76
2021/08/10 05:40:04;;;;;;;8.65;4.20;;;;;;;20.25;90.58;98391.53;5010010;28;20022;-77
2021/08/10 05:42:29;;;;;;;7.20;4.07;;;;;;;19.78;93.12;98388.38;5009765;28;20050;-74
2021/08/10 05:44:55;;;;;;;5.43;4.05;;;;;;;19.88;92.77;98387.13;5010043;28;20029;-75
2021/08/10 05:47:20;;;;;;;7.13;4.47;;;;;;;19.74;93.49;98393.00;5010001;28;20663;-76
2021/08/10 05:49:46;;;;;;;7.13;4.47;;;;;;;19.85;93.14;98382.25;5012980;28;20029;-79
2021/08/10 05:52:11;;;;;;;14.00;4.20;;;;;;;20.13;90.96;98381.25;5012371;28;20025;-78
2021/08/10 05:54:38;;;;;;;7.40;4.57;;;;;;;20.36;90.28;98387.13;5013463;28;20010;-78
2021/08/10 05:57:03;;;;;;;5.68;4.10;;;;;;;20.35;89.11;98390.28;5013004;28;20065;-80
2021/08/10 05:59:29;;;;;;;14.32;9.45;;;;;;;20.52;88.40;98388.06;5011586;28;20618;-77
2021/08/10 06:01:57;;;;;;;8.95;5.57;;;;;;;20.90;86.96;98392.38;5013652;28;20034;-78
2021/08/10 06:04:23;;;;;;;11.90;4.35;;;;;;;20.59;87.70;98393.03;5011837;28;20022;-79
2021/08/10 06:06:48;;;;;;;9.85;5.50;;;;;;;20.73;86.92;98391.50;5014047;28;20033;-84
2021/08/10 06:09:13;;;;;;;8.27;4.20;;;;;;;21.00;84.95;98386.31;5013216;28;20387;-82
2021/08/10 06:11:39;;;;;;;6.88;4.47;;;;;;;21.00;84.77;98389.09;5014191;28;20124;-78
2021/08/10 06:14:04;;;;;;;15.35;9.32;;;;;;;21.21;83.00;98384.19;5013369;28;20033;-78
2021/08/10 06:16:30;;;;;;;11.05;5.57;;;;;;;21.22;82.90;98386.63;5014159;28;20041;-80
2021/08/10 06:18:55;;;;;;;12.95;6.32;;;;;;;21.22;83.13;98383.84;5018845;28;20034;-78
2021/08/10 06:21:21;;;;;;;10.80;5.60;;;;;;;21.06;83.49;98379.34;5012674;28;20025;-79
2021/08/10 06:23:46;;;;;;;10.77;5.75;;;;;;;21.29;83.26;98386.81;5015118;28;20042;-82
2021/08/10 06:26:12;;;;;;;18.98;12.80;;;;;;;21.68;80.90;98396.22;5014005;28;20036;-84
2021/08/10 06:28:37;;;;;;;7.75;5.82;;;;;;;21.71;80.63;98383.56;5013487;28;20037;-82
2021/08/10 06:31:04;;;;;;;10.80;6.15;;;;;;;21.71;80.10;98387.16;5013623;28;20034;-81
2021/08/10 06:33:29;;;;;;;14.25;6.45;;;;;;;22.42;77.76;98384.22;5014122;28;20379;-82
2021/08/10 06:35:55;;;;;;;13.05;5.32;;;;;;;23.11;73.77;98390.16;5012242;28;20033;-80
2021/08/10 06:38:20;;;;;;;9.05;6.38;;;;;;;22.93;73.84;98381.38;5014393;28;20029;-82
2021/08/10 06:40:46;;;;;;;15.10;9.77;;;;;;;22.85;74.00;98382.41;5014309;28;20109;-81
2021/08/10 06:43:11;;;;;;;11.15;4.88;;;;;;;22.87;73.26;98382.84;5013089;28;20454;-82
2021/08/10 06:45:37;;;;;;;9.10;4.85;;;;;;;22.47;74.98;98373.94;5019561;28;20030;-81
2021/08/10 06:48:03;;;;;;;9.43;4.72;;;;;;;23.20;72.08;98365.59;5025263;28;20045;-80
2021/08/10 06:50:29;;;;;;;6.82;4.15;;;;;;;23.38;71.03;98367.56;5012594;28;20030;-80
2021/08/10 06:52:54;;;;;;;6.35;4.03;;;;;;;23.00;71.03;98364.78;5012550;28;20022;-84
2021/08/10 06:55:20;;;;;;;9.45;4.00;;;;;;;23.08;71.73;98358.19;5011868;28;20064;-80
2021/08/10 06:57:45;;;;;;;5.18;3.40;;;;;;;23.58;69.39;98362.00;5011651;28;20173;-80
2021/08/10 07:00:11;;;;;;;12.25;3.83;;;;;;;23.15;69.33;98355.53;5013038;28;20100;-85
2021/08/10 07:02:37;;;;;;;6.00;3.55;;;;;;;22.88;69.61;98362.16;5011396;28;20033;-78
2021/08/10 07:05:03;;;;;;;12.73;3.13;;;;;;;23.13;69.21;98363.47;5012437;28;20077;-78
2021/08/10 07:07:31;;;;;;;7.18;3.30;;;;;;;23.14;69.21;98362.31;5013163;28;20045;-78
2021/08/10 07:09:56;;;;;;;5.75;3.30;;;;;;;23.54;68.62;98361.09;5012323;28;20018;-79
2021/08/10 07:12:22;;;;;;;3.67;2.83;;;;;;;23.94;66.33;98361.44;5012455;28;20536;-78
2021/08/10 07:14:47;;;;;;;6.13;3.85;;;;;;;24.55;64.71;98355.66;5011611;28;20583;-76
2021/08/10 07:17:13;;;;;;;6.63;3.67;;;;;;;24.79;63.03;98354.38;5016519;28;20041;-78
2021/08/10 07:19:38;;;;;;;4.88;3.45;;;;;;;24.32;64.69;98355.72;5011021;28;20091;-78
2021/08/10 07:22:03;;;;;;;11.55;3.70;;;;;;;24.16;65.34;98352.25;5011362;28;20060;-81
2021/08/10 07:24:29;;;;;;;4.07;2.67;;;;;;;24.96;62.07;98346.28;5011844;28;20096;-74
2021/08/10 07:26:54;;;;;;;4.72;3.50;;;;;;;25.00;61.38;98349.09;5009559;28;20026;-74
2021/08/10 07:29:20;;;;;;;3.72;2.70;;;;;;;25.43;59.34;98354.03;5010768;28;20093;-74
2021/08/10 07:31:45;;;;;;;5.85;2.75;;;;;;;25.54;58.88;98346.56;5009496;28;20073;-75
2021/08/10 07:34:11;;;;;;;6.43;2.95;;;;;;;25.59;58.87;98353.03;5008031;28;20025;-73
2021/08/10 07:36:37;;;;;;;9.35;3.20;;;;;;;25.61;60.27;98350.63;5011424;28;20092;-73
2021/08/10 07:39:03;;;;;;;4.50;2.80;;;;;;;26.04;58.72;98353.44;5011342;28;20037;-74
2021/08/10 07:41:28;;;;;;;3.70;2.47;;;;;;;26.43;57.05;98345.38;5010376;28;20042;-75
2021/08/10 07:43:54;;;;;;;4.72;2.83;;;;;;;26.21;57.67;98352.03;5009770;28;20498;-74
2021/08/10 07:46:19;;;;;;;5.22;3.42;;;;;;;25.62;59.55;98349.44;5009568;28;20041;-75
2021/08/10 07:48:44;;;;;;;5.28;2.78;;;;;;;25.64;59.44;98341.47;5011847;28;20014;-74
2021/08/10 07:51:10;;;;;;;14.27;3.78;;;;;;;25.52;59.51;98343.34;5012133;28;20458;-74
2021/08/10 07:53:36;;;;;;;5.78;3.38;;;;;;;25.98;58.41;98342.97;5012198;28;20014;-75
2021/08/10 07:56:02;;;;;;;8.82;3.22;;;;;;;26.16;57.62;98332.72;5011637;28;20475;-74
2021/08/10 07:58:28;;;;;;;7.38;3.63;;;;;;;26.09;58.08;98341.09;5012385;28;20029;-75
2021/08/10 08:00:53;;;;;;;6.28;3.75;;;;;;;25.88;58.83;98343.69;5010032;28;20479;-74
2021/08/10 08:03:19;;;;;;;4.32;2.50;;;;;;;26.73;57.32;98335.91;5008936;28;20558;-73
2021/08/10 08:05:46;;;;;;;6.90;2.92;;;;;;;26.99;56.09;98339.31;5010078;28;20390;-73
2021/08/10 08:08:11;;;;;;;4.30;2.90;;;;;;;26.41;57.11;98338.53;5008981;28;20057;-77
2021/08/10 08:10:36;;;;;;;3.67;3.10;;;;;;;26.92;56.03;98335.66;5009184;28;20529;-74
2021/08/10 08:13:02;;;;;;;3.95;3.08;;;;;;;27.03;55.59;98333.72;5010889;28;20038;-74
2021/08/10 08:15:27;;;;;;;4.95;2.80;;;;;;;26.70;56.62;98331.09;5011178;28;20497;-74
2021/08/10 08:17:53;;;;;;;3.83;2.47;;;;;;;27.03;55.44;98320.44;5011535;28;20026;-76
2021/08/10 08:20:18;;;;;;;5.40;3.05;;;;;;;27.78;54.30;98320.69;5011861;28;20030;-73
2021/08/10 08:22:45;;;;;;;5.00;2.78;;;;;;;28.01;53.38;98323.91;5010160;28;20387;-74
2021/08/10 08:25:11;;;;;;;8.75;3.60;;;;;;;27.34;54.65;98312.53;5003280;28;20391;-75
2021/08/10 08:27:37;;;;;;;9.43;3.33;;;;;;;27.17;55.83;98313.28;5008283;28;20034;-75
2021/08/10 08:30:05;;;;;;;9.02;3.40;;;;;;;28.31;53.04;98321.53;5009249;28;20030;-76
2021/08/10 08:32:30;;;;;;;9.63;3.40;;;;;;;28.68;51.99;98319.06;5002272;28;20391;-77
2021/08/10 08:34:56;;;;;;;5.68;3.40;;;;;;;28.35;52.58;98316.66;5008717;28;20025;-77
2021/08/10 08:37:21;;;;;;;5.75;3.15;;;;;;;27.38;54.97;98307.75;5006793;28;20041;-78
2021/08/10 08:39:47;;;;;;;7.07;3.35;;;;;;;27.30;55.13;98306.09;5008531;28;20030;-75
2021/08/10 08:42:14;;;;;;;6.18;2.97;;;;;;;27.70;54.44;98303.00;5007217;28;20045;-74
2021/08/10 08:44:40;;;;;;;4.55;3.05;;;;;;;27.22;55.67;98302.47;5008104;28;20030;-75
2021/08/10 08:47:09;;;;;;;5.75;2.50;;;;;;;27.63;54.89;98309.41;5008966;28;20037;-76
2021/08/10 08:49:37;;;;;;;6.20;2.53;;;;;;;28.01;54.07;98313.44;5009072;28;20026;-74
2021/08/10 08:52:09;;;;;;;6.60;2.63;;;;;;;28.41;53.67;98303.00;5008838;28;20026;-75
2021/08/10 08:54:34;;;;;;;7.10;2.90;;;;;;;28.99;51.76;98300.44;5009547;28;20089;-73
2021/08/10 08:57:02;;;;;;;8.23;3.03;;;;;;;29.14;51.59;98301.16;5009981;28;20034;-74
2021/08/10 08:59:28;;;;;;;7.88;3.03;;;;;;;29.61;50.33;98303.34;5007519;28;20030;-74
2021/08/10 09:01:54;;;;;;;6.53;2.85;;;;;;;29.37;50.44;98295.03;5009668;28;20014;-75
2021/08/10 09:04:20;;;;;;;8.07;2.65;;;;;;;29.57;50.34;98291.28;5015730;28;20022;-75
2021/08/10 09:06:46;;;;;;;7.25;2.80;;;;;;;29.96;49.60;98296.66;5006855;28;20109;-73
2021/08/10 09:09:22;;;;;;;4.40;2.30;;;;;;;29.86;49.38;98291.09;5006209;28;20022;-74
2021/08/10 09:11:53;;;;;;;8.50;2.70;;;;;;;29.37;51.31;98293.03;5007519;28;20018;-76
2021/08/10 09:14:19;;;;;;;9.73;3.17;;;;;;;29.46;50.14;98287.75;5007275;28;20024;-73
2021/08/10 09:17:02;;;;;;;3.45;2.65;;;;;;;28.55;52.46;98286.88;5005874;28;20479;-77
2021/08/10 09:19:46;;;;;;;4.80;2.40;;;;;;;29.37;50.68;98276.13;5005546;28;20398;-74
2021/08/10 09:22:27;;;;;;;6.00;3.15;;;;;;;28.45;52.62;98281.25;5005926;28;20033;-76
2021/08/10 09:25:11;;;;;;;5.68;2.10;;;;;;;28.16;53.96;98274.91;5011928;28;20475;-74
2021/08/10 09:27:39;;;;;;;6.13;3.00;;;;;;;28.68;52.65;98274.00;5012252;28;20065;-74
2021/08/10 09:30:16;;;;;;;6.07;2.10;;;;;;;28.70;52.88;98273.56;5012208;28;20037;-78
2021/08/10 09:33:03;;;;;;;8.82;2.88;;;;;;;27.94;53.72;98262.81;5010907;28;20386;-75
2021/08/10 09:35:46;;;;;;;8.40;2.38;;;;;;;28.45;53.37;98265.19;5007699;28;20376;-76
2021/08/10 09:38:16;;;;;;;4.65;2.53;;;;;;;28.40;53.66;98271.25;5011468;28;20045;-75
2021/08/10 09:40:52;;;;;;;3.03;2.20;;;;;;;28.25;53.81;98260.41;5012590;28;20036;-78
2021/08/10 09:43:39;;;;;;;4.90;2.95;;;;;;;28.07;54.07;98252.78;4993360;28;20045;-82
2021/08/10 09:46:07;;;;;;;3.35;2.38;;;;;;;27.67;55.16;98254.00;4993415;28;20042;-82
2021/08/10 09:48:34;;;;;;;3.17;2.60;;;;;;;27.64;55.68;98245.53;5003383;28;20117;-79
2021/08/10 09:51:09;;;;;;;5.63;2.80;;;;;;;27.48;55.62;98240.31;5010397;28;20032;-78
2021/08/10 09:53:35;;;;;;;;;;;;;;;28.04;55.13;98244.31;5009741;28;20125;-79
2021/08/10 09:56:00;;;;;;;5.47;2.60;;;;;;;28.46;53.35;98235.81;5008085;28;20012;-79
2021/08/10 09:58:26;;;;;;;5.57;3.63;;;;;;;28.77;52.44;98233.31;5011376;28;20036;-78
2021/08/10 10:00:53;;;;;;;8.70;2.85;;;;;;;29.09;51.86;98231.16;5012233;28;20034;-77
2021/08/10 10:03:21;;;;;;;6.22;3.38;;;;;;;29.27;51.38;98223.41;5011707;28;20395;-77
2021/08/10 10:05:47;;;;;;;2.60;2.08;;;;;;;29.18;51.05;98225.88;5012140;28;20026;-77
2021/08/10 10:08:16;;;;;;;3.00;2.70;;;;;;;28.62;53.20;98219.28;5010170;28;20030;-78
2021/08/10 10:10:42;;;;;;;4.53;2.75;;;;;;;28.43;53.58;98216.13;5009911;28;20025;-76
2021/08/10 10:13:14;;;;;;;4.18;2.55;;;;;;;28.68;52.93;98212.03;5010128;28;20037;-77
2021/08/10 10:15:40;;;;;;;6.00;3.45;;;;;;;29.07;52.50;98200.56;4992462;28;20031;-74
2021/08/10 10:18:09;;;;;;;3.00;2.30;;;;;;;29.65;50.76;98201.78;5000463;28;20494;-74
2021/08/10 10:20:37;;;;;;;10.35;3.13;;;;;;;29.83;50.21;98196.00;4999624;28;20034;-74
2021/08/10 10:23:05;;;;;;;4.38;3.10;;;;;;;30.23;49.59;98198.00;5011753;28;20030;-75
2021/08/10 10:25:32;;;;;;;2.97;2.53;;;;;;;30.48;48.46;98192.91;4996394;28;20022;-75
2021/08/10 10:28:01;;;;;;;8.05;3.10;;;;;;;30.56;48.28;98188.00;4990707;28;20031;-74
2021/08/10 10:30:28;;;;;;;7.65;2.92;;;;;;;30.70;48.24;98194.25;4990749;28;20034;-75
2021/08/10 10:32:54;;;;;;;4.95;2.50;;;;;;;30.20;49.30;98198.84;5000217;28;20028;-75
2021/08/10 10:35:21;;;;;;;4.40;2.95;;;;;;;29.07;51.50;98191.31;5009553;28;20092;-78
2021/08/10 10:37:48;;;;;;;4.72;3.05;;;;;;;29.11;51.94;98184.44;5011812;28;20026;-80
2021/08/10 10:40:18;;;;;;;3.80;2.50;;;;;;;29.94;50.16;98182.59;5010015;28;20029;-78
2021/08/10 10:42:55;;;;;;;5.63;2.88;;;;;;;29.85;50.05;98187.94;5011926;28;20067;-83
2021/08/10 10:45:33;;;;;;;4.80;2.75;;;;;;;28.86;52.02;98185.78;5013339;28;20060;-83
2021/08/10 10:47:59;;;;;;;4.05;2.55;;;;;;;28.64;52.74;98182.25;5009904;28;20044;-79
2021/08/10 10:50:24;;;;;;;3.60;2.85;;;;;;;29.03;51.71;98182.88;4999814;28;20470;-80
2021/08/10 10:53:05;;;;;;;2.95;2.50;;;;;;;29.31;50.53;98181.91;5011503;28;20171;-78
2021/08/10 10:55:36;;;;;;;4.05;2.78;;;;;;;29.83;49.74;98188.34;4998364;28;20054;-81
2021/08/10 10:58:25;;;;;;;5.82;2.33;;;;;;;29.67;49.36;98179.59;4991094;28;20038;-82
2021/08/10 11:01:10;;;;;;;11.40;2.92;;;;;;;29.83;49.40;98179.88;5009576;28;20029;-78
2021/08/10 11:03:36;;;;;;;4.28;2.95;;;;;;;29.82;49.02;98172.66;5008677;28;20054;-81
2021/08/10 11:06:43;;;;;;;3.65;2.60;;;;;;;29.39;50.10;98169.34;5011297;28;20052;-79
2021/08/10 11:09:09;;;;;;;6.00;2.72;;;;;;;28.96;51.20;98159.56;5001586;28;20034;-85
2021/08/10 11:11:52;;;;;;;4.15;2.40;;;;;;;29.56;50.27;98162.78;5010131;28;20501;-80
2021/08/10 11:14:38;;;;;;;5.90;2.90;;;;;;;29.46;50.25;98166.50;5008730;28;20018;-81
2021/08/10 11:17:13;;;;;;;3.75;2.67;;;;;;;29.65;49.52;98157.47;5012117;28;20072;-81
2021/08/10 11:19:40;;;;;;;4.63;3.00;;;;;;;29.72;49.89;98153.78;5010263;28;20364;-78
2021/08/10 11:22:15;;;;;;;7.15;2.55;;;;;;;30.38;48.07;98151.47;5020956;28;20022;-79
2021/08/10 11:24:52;;;;;;;7.70;2.92;;;;;;;30.46;47.48;98149.38;5008931;28;20356;-79
2021/08/10 11:27:41;;;;;;;3.38;2.38;;;;;;;30.92;46.35;98152.38;5008413;28;20105;-79
2021/08/10 11:30:09;;;;;;;5.03;3.25;;;;;;;30.71;46.69;98149.84;5008265;28;20108;-78
2021/08/10 11:32:35;;;;;;;3.45;2.90;;;;;;;30.71;46.94;98144.19;5007886;28;20432;-82
2021/08/10 11:35:31;;;;;;;3.97;2.38;;;;;;;30.37;47.39;98141.38;5009841;28;20029;-81